Time;durP1;ratioP1;P1;durP2;ratioP2;P2;SDS_P1;SDS_P2;PMS_P1;PMS_P2;Temp;Humidity;BMP_temperature;BMP_pressure;BME280_temperature;BME280_humidity;BME280_pressure;Samples;Min_cycle;Max_cycle;Signal;HPM_P1;HPM_P2
2021/11/28 00:01:39;;;;;;;7.43;5.88;;;1.60;99.90;;;;;;5081038;28;20217;-80
2021/11/28 00:04:06;;;;;;;6.60;5.35;;;1.50;99.90;;;;;;5080806;28;20732;-82
2021/11/28 00:06:34;;;;;;;5.57;4.82;;;1.50;99.90;;;;;;5080792;28;20316;-82
2021/11/28 00:09:38;;;;;;;5.15;4.60;;;1.50;99.90;;;;;;5080966;28;20197;-82
2021/11/28 00:12:24;;;;;;;5.72;5.22;;;1.40;99.90;;;;;;5080910;28;20217;-82
2021/11/28 00:14:55;;;;;;;6.75;6.15;;;1.40;99.90;;;;;;5079605;28;20224;-81
2021/11/28 00:17:22;;;;;;;5.05;4.55;;;1.40;99.90;;;;;;5081168;28;20304;-82
2021/11/28 00:19:49;;;;;;;8.38;5.03;;;1.40;99.90;;;;;;5082536;28;20211;-82
2021/11/28 00:22:16;;;;;;;5.32;4.82;;;1.50;99.90;;;;;;5082313;28;20285;-82
2021/11/28 00:24:44;;;;;;;5.75;4.85;;;1.40;99.90;;;;;;5080844;28;20196;-82
2021/11/28 00:27:11;;;;;;;4.90;4.50;;;1.40;99.90;;;;;;5085868;28;20217;-82
2021/11/28 00:29:38;;;;;;;5.50;5.00;;;1.40;99.90;;;;;;5087760;28;20210;-82
2021/11/28 00:32:06;;;;;;;5.28;4.70;;;1.30;99.90;;;;;;5086803;28;20217;-82
2021/11/28 00:34:32;;;;;;;5.93;5.32;;;1.40;99.90;;;;;;5082098;28;20205;-81
2021/11/28 00:36:59;;;;;;;5.47;4.97;;;1.50;99.90;;;;;;5084094;28;20232;-81
2021/11/28 00:39:26;;;;;;;5.07;4.72;;;1.70;99.90;;;;;;5088410;28;20676;-82
2021/11/28 00:41:54;;;;;;;4.95;4.28;;;1.80;99.90;;;;;;5092521;28;20199;-81
2021/11/28 00:44:20;;;;;;;6.03;5.00;;;1.90;99.90;;;;;;5093906;28;20203;-82
2021/11/28 00:46:47;;;;;;;5.95;5.43;;;2.00;99.90;;;;;;5094036;28;20225;-79
2021/11/28 00:49:15;;;;;;;5.35;4.68;;;2.10;99.90;;;;;;5091620;28;20198;-82
2021/11/28 00:51:50;;;;;;;4.88;4.35;;;2.20;99.90;;;;;;5091291;28;20200;-82
2021/11/28 00:54:18;;;;;;;5.63;5.22;;;2.20;99.90;;;;;;5089795;28;20216;-80
2021/11/28 00:56:45;;;;;;;5.88;4.40;;;2.20;99.90;;;;;;5082474;28;20222;-82
2021/11/28 00:59:13;;;;;;;4.75;4.40;;;2.20;99.90;;;;;;5082166;28;20218;-82
2021/11/28 01:01:40;;;;;;;5.68;4.30;;;2.30;99.90;;;;;;5086071;28;20207;-81
2021/11/28 01:04:07;;;;;;;4.72;4.40;;;2.20;99.90;;;;;;5088557;28;20216;-82
2021/11/28 01:06:34;;;;;;;7.18;4.22;;;2.30;99.90;;;;;;5083653;28;20225;-82
2021/11/28 01:09:01;;;;;;;6.18;4.68;;;2.20;99.90;;;;;;5083330;28;20202;-82
2021/11/28 01:11:28;;;;;;;4.50;4.10;;;2.10;99.90;;;;;;5088337;28;20205;-82
2021/11/28 01:13:55;;;;;;;6.50;4.22;;;2.10;99.90;;;;;;5088422;28;20233;-82
2021/11/28 01:16:23;;;;;;;6.57;4.25;;;2.10;99.90;;;;;;5079723;28;20226;-82
2021/11/28 01:18:50;;;;;;;5.38;4.47;;;2.10;99.90;;;;;;5084784;28;20205;-82
2021/11/28 01:21:18;;;;;;;4.38;3.95;;;1.80;99.90;;;;;;5082972;28;20204;-82
2021/11/28 01:23:45;;;;;;;5.18;4.65;;;1.80;99.90;;;;;;5081696;28;20573;-82
2021/11/28 01:26:12;;;;;;;4.18;3.80;;;1.60;99.90;;;;;;5083128;28;20200;-81
2021/11/28 01:28:39;;;;;;;4.25;3.92;;;1.60;99.90;;;;;;5083361;28;20296;-82
2021/11/28 01:31:06;;;;;;;4.75;4.18;;;1.60;99.90;;;;;;5083127;28;20687;-82
2021/11/28 01:33:34;;;;;;;7.15;4.25;;;1.80;99.90;;;;;;5084351;28;20224;-82
2021/11/28 01:36:01;;;;;;;5.25;4.75;;;1.60;99.90;;;;;;5083447;28;20206;-81
2021/11/28 01:38:28;;;;;;;5.45;5.00;;;1.70;99.90;;;;;;5084273;28;20670;-82
2021/11/28 01:40:56;;;;;;;3.63;3.33;;;1.80;99.90;;;;;;5081824;28;20205;-82
2021/11/28 01:43:23;;;;;;;4.47;4.07;;;1.80;99.90;;;;;;5083532;28;20190;-82
2021/11/28 01:45:52;;;;;;;4.88;4.10;;;1.80;99.90;;;;;;5084099;28;20681;-82
2021/11/28 01:48:20;;;;;;;4.25;3.95;;;1.90;99.90;;;;;;5082871;28;20721;-82
2021/11/28 01:50:50;;;;;;;3.70;3.38;;;1.90;99.90;;;;;;5081018;28;20663;-81
2021/11/28 01:53:20;;;;;;;4.30;3.90;;;1.80;99.90;;;;;;5083604;28;20232;-82
2021/11/28 01:55:47;;;;;;;4.10;3.80;;;1.80;99.90;;;;;;5083423;28;20207;-82
2021/11/28 01:58:14;;;;;;;3.78;3.47;;;1.70;99.90;;;;;;5082819;28;20232;-82
2021/11/28 02:00:44;;;;;;;3.33;3.08;;;1.80;99.90;;;;;;5082128;28;20682;-81
2021/11/28 02:03:12;;;;;;;4.38;3.42;;;1.80;99.90;;;;;;5082392;28;20190;-81
2021/11/28 02:05:42;;;;;;;4.13;3.83;;;1.80;99.90;;;;;;5082371;28;20197;-82
2021/11/28 02:08:10;;;;;;;5.32;3.97;;;2.00;99.90;;;;;;5081955;28;20236;-82
2021/11/28 02:10:36;;;;;;;3.75;3.45;;;1.90;99.90;;;;;;5082741;28;20200;-82
2021/11/28 02:13:03;;;;;;;4.55;3.42;;;1.90;99.90;;;;;;5079991;28;20227;-82
2021/11/28 02:15:30;;;;;;;3.75;3.45;;;1.90;99.90;;;;;;5082914;28;20198;-82
2021/11/28 02:17:58;;;;;;;4.95;3.70;;;1.90;99.90;;;;;;5097203;28;20208;-80
2021/11/28 02:20:27;;;;;;;3.13;2.85;;;1.90;99.90;;;;;;5097868;28;20184;-80
2021/11/28 02:22:56;;;;;;;3.65;3.35;;;2.00;99.90;;;;;;5081541;28;20206;-83
2021/11/28 02:25:25;;;;;;;7.28;3.38;;;2.00;99.90;;;;;;5082261;28;20653;-83
2021/11/28 02:27:52;;;;;;;3.40;3.20;;;1.90;99.90;;;;;;5080596;28;20237;-83
2021/11/28 02:30:19;;;;;;;5.05;3.10;;;2.00;99.90;;;;;;5081810;28;20205;-83
2021/11/28 02:32:47;;;;;;;3.75;3.17;;;2.00;99.90;;;;;;5082175;28;20241;-82
2021/11/28 02:35:15;;;;;;;5.35;3.30;;;1.90;99.90;;;;;;5080664;28;20205;-82
2021/11/28 02:37:42;;;;;;;3.88;2.95;;;1.80;99.90;;;;;;5081921;28;20228;-81
2021/11/28 02:40:12;;;;;;;4.00;2.95;;;1.90;99.90;;;;;;5082509;28;20221;-83
2021/11/28 02:42:39;;;;;;;3.10;2.90;;;1.80;99.90;;;;;;5082297;28;20201;-83
2021/11/28 02:45:07;;;;;;;4.70;3.20;;;1.90;99.90;;;;;;5082709;28;20237;-82
2021/11/28 02:47:34;;;;;;;5.63;3.13;;;2.00;99.90;;;;;;5082468;28;20229;-82
2021/11/28 02:50:01;;;;;;;3.80;3.50;;;1.90;99.90;;;;;;5082265;28;20210;-83
2021/11/28 02:52:28;;;;;;;2.95;2.65;;;2.00;99.90;;;;;;5082484;28;20599;-82
2021/11/28 02:54:55;;;;;;;2.42;2.22;;;1.90;99.90;;;;;;5082116;28;20227;-82
2021/11/28 02:57:23;;;;;;;11.25;3.30;;;1.90;99.90;;;;;;5081941;28;20226;-82
2021/11/28 02:59:50;;;;;;;3.03;2.83;;;1.90;99.90;;;;;;5081531;28;20212;-82
2021/11/28 03:02:17;;;;;;;5.45;3.58;;;1.90;99.90;;;;;;5081684;28;20292;-82
2021/11/28 03:04:44;;;;;;;3.83;3.38;;;1.90;99.90;;;;;;5081606;28;20211;-83
2021/11/28 03:07:15;;;;;;;3.88;2.55;;;1.90;99.90;;;;;;5083009;28;20236;-82
2021/11/28 03:09:42;;;;;;;3.30;2.85;;;2.00;99.90;;;;;;5082455;28;20211;-82
2021/11/28 03:12:09;;;;;;;3.80;3.50;;;1.80;99.90;;;;;;5082090;28;20205;-82
2021/11/28 03:14:38;;;;;;;3.13;2.92;;;1.90;99.90;;;;;;5082725;28;20211;-82
2021/11/28 03:17:05;;;;;;;4.72;2.95;;;1.90;99.90;;;;;;5082506;28;20581;-82
2021/11/28 03:19:31;;;;;;;3.08;2.85;;;1.90;99.90;;;;;;5082643;28;20210;-82
2021/11/28 03:21:59;;;;;;;3.20;2.92;;;2.00;99.90;;;;;;5082307;28;20206;-82
2021/11/28 03:24:26;;;;;;;4.93;3.78;;;2.00;99.90;;;;;;5081342;28;20399;-82
2021/11/28 03:26:53;;;;;;;3.38;3.10;;;2.10;99.90;;;;;;5081214;28;20236;-82
2021/11/28 03:29:22;;;;;;;2.55;2.28;;;2.00;99.90;;;;;;5081543;28;20324;-82
2021/11/28 03:31:54;;;;;;;3.75;2.85;;;2.10;99.90;;;;;;5081136;28;20577;-82
2021/11/28 03:34:21;;;;;;;4.93;3.00;;;1.90;99.90;;;;;;5080813;28;20221;-82
2021/11/28 03:36:50;;;;;;;2.55;2.35;;;2.10;99.90;;;;;;5081572;28;20230;-82
2021/11/28 03:39:20;;;;;;;4.40;3.35;;;2.00;99.90;;;;;;5081787;28;20205;-82
2021/11/28 03:41:51;;;;;;;3.58;3.28;;;1.80;99.90;;;;;;5082040;28;20560;-81
2021/11/28 03:44:19;;;;;;;4.40;4.10;;;1.90;99.90;;;;;;5081753;28;20203;-82
2021/11/28 03:46:45;;;;;;;5.15;2.65;;;1.80;99.90;;;;;;5081350;28;20291;-80
2021/11/28 03:49:13;;;;;;;4.82;4.05;;;1.90;99.90;;;;;;5081516;28;20205;-82
2021/11/28 03:51:40;;;;;;;4.13;2.97;;;2.00;99.90;;;;;;5081007;28;20684;-83
2021/11/28 03:54:07;;;;;;;3.50;3.20;;;2.10;99.90;;;;;;5080873;28;20221;-83
2021/11/28 03:56:34;;;;;;;4.32;2.80;;;2.20;99.90;;;;;;5081194;28;20232;-82
2021/11/28 03:59:01;;;;;;;4.55;3.55;;;2.20;99.90;;;;;;5081951;28;20210;-82
2021/11/28 04:01:28;;;;;;;3.30;3.00;;;2.20;99.90;;;;;;5081048;28;20210;-81
2021/11/28 04:03:54;;;;;;;4.60;4.20;;;2.10;99.90;;;;;;5081867;28;20198;-83
2021/11/28 04:06:23;;;;;;;3.20;3.00;;;2.20;99.90;;;;;;5081059;28;20205;-82
2021/11/28 04:08:51;;;;;;;5.47;4.13;;;2.30;99.90;;;;;;5081113;28;20217;-80
2021/11/28 04:11:18;;;;;;;3.47;3.17;;;2.20;99.90;;;;;;5081081;28;20265;-81
2021/11/28 04:13:45;;;;;;;3.58;2.92;;;2.10;99.90;;;;;;5080848;28;20227;-83
2021/11/28 04:16:12;;;;;;;6.60;3.20;;;2.10;99.90;;;;;;5081611;28;20213;-81
2021/11/28 04:18:39;;;;;;;3.10;2.90;;;2.20;99.90;;;;;;5080911;28;20230;-83
2021/11/28 04:21:06;;;;;;;3.28;3.03;;;2.30;99.90;;;;;;5080482;28;20209;-81
2021/11/28 04:23:34;;;;;;;3.80;3.05;;;2.40;99.90;;;;;;5081003;28;20208;-82
2021/11/28 04:26:01;;;;;;;3.45;3.15;;;2.30;99.90;;;;;;5081030;28;20216;-82
2021/11/28 04:28:28;;;;;;;3.70;3.40;;;2.30;99.90;;;;;;5081498;28;20205;-82
2021/11/28 04:30:55;;;;;;;2.97;2.78;;;2.30;99.90;;;;;;5081344;28;20208;-82
2021/11/28 04:33:21;;;;;;;3.55;3.10;;;2.40;99.90;;;;;;5082386;28;20222;-82
2021/11/28 04:35:48;;;;;;;4.03;3.72;;;2.40;99.90;;;;;;5081816;28;20210;-81
2021/11/28 04:38:15;;;;;;;4.28;3.03;;;2.30;99.90;;;;;;5082100;28;20574;-82
2021/11/28 04:40:43;;;;;;;3.33;3.03;;;2.40;99.90;;;;;;5081409;28;20210;-82
2021/11/28 04:43:10;;;;;;;3.50;2.85;;;2.30;99.90;;;;;;5081036;28;20553;-82
2021/11/28 04:45:37;;;;;;;3.25;2.95;;;2.30;99.90;;;;;;5081455;28;20201;-82
2021/11/28 04:48:04;;;;;;;3.20;3.00;;;2.40;99.90;;;;;;5081799;28;20224;-82
2021/11/28 04:50:31;;;;;;;2.78;2.42;;;2.40;99.90;;;;;;5081154;28;20212;-82
2021/11/28 04:52:58;;;;;;;3.72;2.80;;;2.40;99.90;;;;;;5085716;28;20670;-82
2021/11/28 04:55:25;;;;;;;4.60;2.53;;;2.40;99.90;;;;;;5085332;28;20211;-81
2021/11/28 04:57:53;;;;;;;3.35;3.05;;;2.40;99.90;;;;;;5085449;28;20230;-82
2021/11/28 05:00:22;;;;;;;4.50;3.03;;;2.40;99.90;;;;;;5085039;28;20663;-83
2021/11/28 05:02:50;;;;;;;2.75;2.55;;;2.40;99.90;;;;;;5084935;28;20210;-82
2021/11/28 05:05:17;;;;;;;3.13;2.85;;;2.50;99.90;;;;;;5084969;28;20304;-82
2021/11/28 05:07:44;;;;;;;3.28;2.92;;;2.60;99.90;;;;;;5086659;28;20236;-82
2021/11/28 05:10:11;;;;;;;4.00;3.00;;;2.70;99.90;;;;;;5087751;28;20567;-82
2021/11/28 05:12:38;;;;;;;2.28;2.17;;;2.80;99.90;;;;;;5088415;28;20219;-82
2021/11/28 05:15:08;;;;;;;4.38;2.90;;;2.80;99.90;;;;;;5091703;28;20229;-81
2021/11/28 05:17:35;;;;;;;4.03;2.75;;;2.80;99.90;;;;;;5094161;28;20229;-81
2021/11/28 05:20:02;;;;;;;1.85;1.75;;;2.50;99.90;;;;;;5091521;28;20699;-82
2021/11/28 05:22:29;;;;;;;2.85;2.50;;;2.20;99.90;;;;;;5087124;28;20203;-82
2021/11/28 05:24:56;;;;;;;1.83;1.73;;;2.10;99.90;;;;;;5086408;28;20204;-82
2021/11/28 05:27:23;;;;;;;2.33;2.13;;;2.00;99.90;;;;;;5092163;28;20225;-81
2021/11/28 05:29:51;;;;;;;2.38;2.17;;;2.00;99.90;;;;;;5093512;28;20211;-82
2021/11/28 05:32:19;;;;;;;1.95;1.67;;;2.10;99.90;;;;;;5089647;28;20297;-82
2021/11/28 05:34:46;;;;;;;4.07;2.10;;;2.10;99.90;;;;;;5087871;28;20244;-82
2021/11/28 05:37:13;;;;;;;1.73;1.63;;;2.10;99.90;;;;;;5087874;28;20230;-82
2021/11/28 05:39:40;;;;;;;2.70;2.60;;;2.10;99.90;;;;;;5087381;28;20228;-82
2021/11/28 05:42:07;;;;;;;2.72;2.00;;;2.00;99.90;;;;;;5087210;28;20208;-81
2021/11/28 05:44:34;;;;;;;4.03;2.65;;;2.00;99.90;;;;;;5094386;28;20219;-80
2021/11/28 05:47:01;;;;;;;2.22;2.10;;;2.00;99.90;;;;;;5092736;28;20226;-80
2021/11/28 05:49:29;;;;;;;8.07;2.30;;;2.20;99.90;;;;;;5086615;28;20221;-82
2021/11/28 05:51:55;;;;;;;2.25;2.00;;;2.20;99.90;;;;;;5086679;28;20301;-82
2021/11/28 05:54:23;;;;;;;1.92;1.77;;;2.20;99.90;;;;;;5086719;28;20233;-81
2021/11/28 05:56:50;;;;;;;2.15;2.03;;;2.40;99.90;;;;;;5086674;28;20256;-82
2021/11/28 05:59:16;;;;;;;5.13;2.80;;;2.40;99.90;;;;;;5085013;28;20215;-82
2021/11/28 06:01:43;;;;;;;1.63;1.50;;;2.60;99.90;;;;;;5082125;28;20605;-82
2021/11/28 06:04:10;;;;;;;3.00;2.70;;;2.70;99.90;;;;;;5083001;28;20211;-82
2021/11/28 06:06:38;;;;;;;2.42;2.28;;;2.80;99.90;;;;;;5082700;28;20244;-82
2021/11/28 06:09:05;;;;;;;3.42;2.13;;;2.80;99.90;;;;;;5082818;28;20727;-82
2021/11/28 06:11:32;;;;;;;2.65;2.20;;;2.80;99.90;;;;;;5082815;28;20218;-82
2021/11/28 06:13:58;;;;;;;2.10;2.00;;;2.80;99.90;;;;;;5083193;28;20235;-82
2021/11/28 06:16:25;;;;;;;1.90;1.80;;;2.90;99.90;;;;;;5085072;28;20222;-82
2021/11/28 06:18:52;;;;;;;4.05;2.13;;;3.00;99.90;;;;;;5086788;28;20203;-81
2021/11/28 06:21:19;;;;;;;5.53;1.70;;;3.00;99.90;;;;;;5091889;28;20704;-81
2021/11/28 06:23:47;;;;;;;2.17;2.08;;;3.00;99.90;;;;;;5091824;28;20203;-81
2021/11/28 06:26:14;;;;;;;2.85;2.15;;;3.10;99.90;;;;;;5086885;28;20222;-82
2021/11/28 06:28:40;;;;;;;3.95;2.40;;;3.00;99.90;;;;;;5084658;28;20687;-82
2021/11/28 06:31:07;;;;;;;4.03;1.83;;;3.10;99.90;;;;;;5083756;28;20560;-82
2021/11/28 06:33:34;;;;;;;2.33;2.17;;;3.10;99.90;;;;;;5082196;28;20307;-81
2021/11/28 06:36:01;;;;;;;3.35;2.72;;;3.10;99.90;;;;;;5083081;28;20203;-82
2021/11/28 06:38:28;;;;;;;2.50;2.30;;;3.00;99.90;;;;;;5081770;28;20252;-82
2021/11/28 06:40:56;;;;;;;4.43;2.95;;;3.00;99.90;;;;;;5081787;28;20227;-82
2021/11/28 06:43:23;;;;;;;2.08;1.90;;;2.80;99.90;;;;;;5081985;28;20676;-82
2021/11/28 06:45:50;;;;;;;4.10;1.98;;;2.90;99.90;;;;;;5082121;28;20208;-82
2021/11/28 06:48:17;;;;;;;3.00;2.75;;;3.00;99.90;;;;;;5082753;28;20276;-82
2021/11/28 06:50:44;;;;;;;2.53;2.20;;;3.00;99.90;;;;;;5081733;28;20234;-82
2021/11/28 06:53:10;;;;;;;3.15;2.60;;;3.10;99.90;;;;;;5082230;28;20209;-82
2021/11/28 06:55:37;;;;;;;2.63;2.42;;;3.10;99.90;;;;;;5084753;28;20237;-82
2021/11/28 06:58:05;;;;;;;4.10;3.75;;;3.20;99.90;;;;;;5085128;28;20226;-82
2021/11/28 07:00:32;;;;;;;6.47;2.65;;;3.20;99.90;;;;;;5084876;28;20201;-82
2021/11/28 07:02:59;;;;;;;3.35;3.15;;;3.20;99.90;;;;;;5085628;28;20239;-82
2021/11/28 07:05:26;;;;;;;4.28;2.97;;;3.20;99.90;;;;;;5087059;28;20202;-82
2021/11/28 07:07:52;;;;;;;2.55;2.35;;;3.20;99.90;;;;;;5085406;28;20242;-82
2021/11/28 07:10:19;;;;;;;3.75;3.05;;;3.20;99.90;;;;;;5084041;28;20216;-82
2021/11/28 07:12:46;;;;;;;3.60;3.10;;;3.20;99.90;;;;;;5085483;28;20213;-82
2021/11/28 07:15:14;;;;;;;4.07;3.35;;;3.20;99.90;;;;;;5084573;28;20232;-82
2021/11/28 07:17:41;;;;;;;3.03;2.83;;;3.20;99.90;;;;;;5084982;28;20304;-82
2021/11/28 07:20:09;;;;;;;3.00;2.60;;;3.20;99.90;;;;;;5085693;28;20267;-82
2021/11/28 07:22:36;;;;;;;3.08;2.78;;;3.20;99.90;;;;;;5084142;28;20202;-81
2021/11/28 07:25:04;;;;;;;2.20;2.10;;;3.30;99.90;;;;;;5083991;28;20208;-82
2021/11/28 07:27:31;;;;;;;2.97;2.78;;;3.30;99.90;;;;;;5087400;28;20252;-82
2021/11/28 07:30:00;;;;;;;3.38;3.15;;;3.40;99.90;;;;;;5086755;28;20685;-82
2021/11/28 07:32:28;;;;;;;3.25;2.95;;;3.30;99.90;;;;;;5087133;28;20239;-82
2021/11/28 07:34:55;;;;;;;2.90;2.70;;;3.30;99.90;;;;;;5086903;28;20226;-82
2021/11/28 07:37:22;;;;;;;3.10;2.80;;;3.40;99.90;;;;;;5086440;28;20229;-81
2021/11/28 07:39:48;;;;;;;2.90;2.70;;;3.40;99.90;;;;;;5085767;28;20207;-82
2021/11/28 07:42:15;;;;;;;4.35;3.65;;;3.40;99.90;;;;;;5084425;28;20216;-82
2021/11/28 07:44:42;;;;;;;3.20;3.00;;;3.40;99.90;;;;;;5084557;28;20211;-82
2021/11/28 07:47:09;;;;;;;4.18;3.47;;;3.40;99.90;;;;;;5084360;28;20230;-82
2021/11/28 07:49:37;;;;;;;3.38;3.17;;;3.40;99.90;;;;;;5085391;28;20204;-82
2021/11/28 07:52:04;;;;;;;4.70;3.50;;;3.50;99.90;;;;;;5084509;28;20213;-82
2021/11/28 07:54:31;;;;;;;3.80;3.40;;;3.50;99.90;;;;;;5084387;28;20232;-82
2021/11/28 07:56:58;;;;;;;3.53;3.17;;;3.50;99.90;;;;;;5084389;28;20270;-82
2021/11/28 07:59:24;;;;;;;3.88;3.45;;;3.50;99.90;;;;;;5081897;28;20215;-81
2021/11/28 08:01:51;;;;;;;3.78;3.42;;;3.50;99.90;;;;;;5082301;28;20209;-81
2021/11/28 08:04:18;;;;;;;3.47;3.17;;;3.50;99.90;;;;;;5082851;28;20681;-81
2021/11/28 08:06:46;;;;;;;2.88;2.78;;;3.60;99.90;;;;;;5082823;28;20240;-82
2021/11/28 08:09:13;;;;;;;6.28;3.90;;;3.60;99.90;;;;;;5080018;28;20208;-80
2021/11/28 08:11:40;;;;;;;3.70;3.50;;;3.60;99.90;;;;;;5076496;28;20592;-81
2021/11/28 08:14:06;;;;;;;4.00;3.60;;;3.60;99.90;;;;;;5077102;28;20601;-81
2021/11/28 08:16:33;;;;;;;4.78;4.47;;;3.60;99.90;;;;;;5078249;28;20225;-80
2021/11/28 08:19:00;;;;;;;3.88;3.58;;;3.60;99.90;;;;;;5080726;28;20211;-80
2021/11/28 08:21:27;;;;;;;3.70;3.40;;;3.70;99.90;;;;;;5076313;28;20205;-81
2021/11/28 08:23:57;;;;;;;5.10;4.18;;;3.80;99.90;;;;;;5075323;28;20249;-80
2021/11/28 08:26:24;;;;;;;5.30;3.90;;;3.90;99.90;;;;;;5075048;28;20232;-80
2021/11/28 08:28:51;;;;;;;3.15;2.85;;;3.90;99.90;;;;;;5075233;28;20201;-80
2021/11/28 08:31:18;;;;;;;4.40;4.10;;;3.90;99.90;;;;;;5074940;28;20231;-81
2021/11/28 08:33:45;;;;;;;3.20;2.63;;;4.00;99.90;;;;;;5075169;28;20204;-80
2021/11/28 08:36:12;;;;;;;3.17;2.97;;;4.00;99.90;;;;;;5075852;28;20258;-80
2021/11/28 08:38:42;;;;;;;3.20;2.92;;;4.00;99.90;;;;;;5076038;28;20576;-80
2021/11/28 08:41:11;;;;;;;5.45;4.55;;;4.00;99.90;;;;;;5075648;28;20203;-80
2021/11/28 08:43:38;;;;;;;4.72;3.35;;;4.00;99.90;;;;;;5076095;28;20625;-80
2021/11/28 08:46:05;;;;;;;4.55;3.75;;;4.00;99.90;;;;;;5075146;28;20200;-81
2021/11/28 08:48:32;;;;;;;3.25;2.72;;;4.00;99.90;;;;;;5075802;28;20199;-81
2021/11/28 08:50:59;;;;;;;3.67;3.38;;;4.00;99.90;;;;;;5075211;28;20201;-81
2021/11/28 08:53:25;;;;;;;6.35;3.47;;;4.10;99.90;;;;;;5074402;28;20191;-81
2021/11/28 08:55:53;;;;;;;3.72;3.30;;;4.00;99.90;;;;;;5074616;28;20232;-81
2021/11/28 08:58:21;;;;;;;5.60;3.80;;;4.00;99.90;;;;;;5074802;28;20215;-80
2021/11/28 09:00:48;;;;;;;3.30;3.00;;;4.00;99.90;;;;;;5074023;28;20779;-81
2021/11/28 09:03:15;;;;;;;3.60;3.35;;;4.10;99.90;;;;;;5078202;28;20641;-81
2021/11/28 09:05:42;;;;;;;4.07;3.33;;;4.20;99.90;;;;;;5078260;28;20193;-81
2021/11/28 09:08:09;;;;;;;4.38;3.97;;;4.20;99.90;;;;;;5073462;28;20227;-80
2021/11/28 09:10:37;;;;;;;3.92;3.60;;;4.10;99.90;;;;;;5073181;28;20209;-80
2021/11/28 09:13:05;;;;;;;8.18;4.10;;;4.00;99.90;;;;;;5073605;28;20258;-81
2021/11/28 09:15:33;;;;;;;4.00;3.53;;;4.10;99.90;;;;;;5073177;28;20753;-81
2021/11/28 09:18:04;;;;;;;3.63;3.33;;;4.10;99.90;;;;;;5073469;28;20224;-81
2021/11/28 09:20:30;;;;;;;4.18;3.78;;;4.20;99.90;;;;;;5073603;28;20591;-81
2021/11/28 09:25:42;;;;;;;4.80;4.40;;;3.40;99.90;;;;;;5074702;28;20222;-80
2021/11/28 09:28:09;;;;;;;5.15;4.30;;;3.30;99.90;;;;;;5075809;28;20221;-80
2021/11/28 09:30:37;;;;;;;3.85;3.55;;;3.40;99.90;;;;;;5075773;28;20212;-81
2021/11/28 09:33:06;;;;;;;4.05;3.67;;;3.40;99.90;;;;;;5076162;28;20210;-80
2021/11/28 09:35:34;;;;;;;3.17;2.92;;;3.50;99.90;;;;;;5076178;28;20227;-81
2021/11/28 09:38:01;;;;;;;4.38;3.92;;;3.40;99.90;;;;;;5078199;28;20238;-80
2021/11/28 09:40:28;;;;;;;4.90;4.50;;;3.30;99.90;;;;;;5079251;28;20213;-81
2021/11/28 09:42:57;;;;;;;4.32;4.03;;;3.40;99.90;;;;;;5077954;28;20215;-80
2021/11/28 09:45:25;;;;;;;4.25;3.85;;;3.20;99.90;;;;;;5077308;28;20202;-79
2021/11/28 09:47:55;;;;;;;5.95;5.38;;;3.10;99.90;;;;;;5075053;28;20223;-79
2021/11/28 09:50:24;;;;;;;3.55;3.35;;;3.00;99.90;;;;;;5074378;28;20207;-81
2021/11/28 09:52:51;;;;;;;4.72;4.03;;;2.90;99.90;;;;;;5072443;28;20272;-79
2021/11/28 09:55:19;;;;;;;5.47;3.80;;;2.90;99.90;;;;;;5073754;28;20219;-80
2021/11/28 09:57:47;;;;;;;3.42;3.13;;;3.00;99.90;;;;;;5070909;28;20221;-80
2021/11/28 10:00:16;;;;;;;3.53;3.22;;;3.00;99.90;;;;;;5073488;28;20662;-79
2021/11/28 10:02:43;;;;;;;4.18;3.83;;;3.00;99.90;;;;;;5073216;28;20212;-79
2021/11/28 10:05:13;;;;;;;3.30;3.10;;;3.20;99.90;;;;;;5073444;28;20193;-79
2021/11/28 10:07:41;;;;;;;5.53;4.30;;;3.20;99.90;;;;;;5073443;28;20227;-79
2021/11/28 10:10:09;;;;;;;6.53;4.38;;;3.40;99.90;;;;;;5071407;28;20202;-80
2021/11/28 10:12:42;;;;;;;4.35;3.95;;;3.50;99.90;;;;;;5075726;28;20200;-79
2021/11/28 10:15:11;;;;;;;4.32;3.92;;;3.70;99.90;;;;;;5074907;28;20212;-79
2021/11/28 10:17:39;;;;;;;3.58;3.28;;;3.80;99.90;;;;;;5075572;28;20215;-79
2021/11/28 10:20:09;;;;;;;4.13;3.70;;;3.90;99.90;;;;;;5072609;28;20227;-80
2021/11/28 10:22:38;;;;;;;3.33;3.10;;;3.80;99.90;;;;;;5074574;28;20193;-79
2021/11/28 10:25:11;;;;;;;4.32;3.28;;;4.00;99.90;;;;;;5075064;28;20266;-80
2021/11/28 10:27:41;;;;;;;3.70;3.40;;;4.10;99.90;;;;;;5073486;28;20258;-79
2021/11/28 10:30:11;;;;;;;3.85;3.55;;;4.20;99.90;;;;;;5072783;28;20197;-79
2021/11/28 10:32:43;;;;;;;3.15;2.85;;;4.30;99.90;;;;;;5076007;28;20195;-79
2021/11/28 10:35:11;;;;;;;3.53;3.08;;;4.40;99.90;;;;;;5074447;28;20224;-78
2021/11/28 10:37:43;;;;;;;3.25;3.00;;;4.60;99.90;;;;;;5074693;28;20217;-79
2021/11/28 10:40:11;;;;;;;5.05;3.15;;;4.60;99.90;;;;;;5071776;28;20212;-79
2021/11/28 10:42:39;;;;;;;3.33;3.03;;;4.70;99.90;;;;;;5072821;28;20201;-80
2021/11/28 10:45:09;;;;;;;2.60;2.40;;;4.60;99.90;;;;;;5070432;28;20200;-80
2021/11/28 10:47:39;;;;;;;3.42;3.15;;;4.50;99.90;;;;;;5074120;28;20727;-79
2021/11/28 10:50:15;;;;;;;2.50;2.30;;;4.20;99.90;;;;;;5072610;28;20211;-80
2021/11/28 10:52:45;;;;;;;2.95;2.47;;;4.10;99.90;;;;;;5073289;28;20593;-79
2021/11/28 10:55:14;;;;;;;4.45;3.20;;;4.00;99.90;;;;;;5054280;28;20232;-80
2021/11/28 10:57:42;;;;;;;3.00;2.80;;;3.80;99.90;;;;;;5065999;28;20253;-80
2021/11/28 11:00:10;;;;;;;4.28;3.00;;;3.70;99.90;;;;;;5074314;28;20213;-80
2021/11/28 11:02:39;;;;;;;3.90;3.60;;;3.70;99.90;;;;;;5074476;28;20199;-80
2021/11/28 11:05:09;;;;;;;4.80;4.03;;;3.50;99.90;;;;;;5074087;28;20306;-80
2021/11/28 11:07:46;;;;;;;5.80;3.67;;;3.70;99.90;;;;;;5082226;22;20240;-82
2021/11/28 11:10:19;;;;;;;4.00;3.20;;;3.70;99.90;;;;;;5063712;28;20208;-83
2021/11/28 11:12:47;;;;;;;3.38;3.08;;;3.60;99.90;;;;;;5065820;28;20269;-84
2021/11/28 11:15:29;;;;;;;4.22;3.90;;;3.70;99.90;;;;;;5046574;28;20228;-82
2021/11/28 11:17:58;;;;;;;3.95;3.30;;;3.90;99.90;;;;;;5062576;28;20228;-82
2021/11/28 11:20:26;;;;;;;3.33;3.03;;;4.00;99.90;;;;;;5061375;28;20565;-83
2021/11/28 11:22:54;;;;;;;3.53;3.22;;;4.10;99.90;;;;;;5045666;28;20210;-82
2021/11/28 11:25:30;;;;;;;3.70;3.40;;;4.20;99.90;;;;;;5042080;28;20261;-83
2021/11/28 11:28:08;;;;;;;2.83;2.63;;;4.20;99.90;;;;;;5040541;28;20225;-83
2021/11/28 11:30:36;;;;;;;4.22;3.92;;;4.30;99.90;;;;;;5055066;28;20673;-83
2021/11/28 11:33:04;;;;;;;4.45;3.20;;;4.50;99.90;;;;;;5056714;28;20202;-83
2021/11/28 11:35:33;;;;;;;2.90;2.70;;;4.40;99.90;;;;;;5042943;28;20244;-83
2021/11/28 11:38:04;;;;;;;2.95;2.75;;;4.50;99.90;;;;;;5044821;28;20657;-82
2021/11/28 11:40:31;;;;;;;3.70;3.33;;;4.60;99.90;;;;;;5059992;28;20205;-82
2021/11/28 11:42:58;;;;;;;2.92;2.72;;;4.70;99.90;;;;;;5057280;28;20818;-84
2021/11/28 11:45:35;;;;;;;2.80;2.60;;;4.70;99.90;;;;;;5041421;28;20202;-84
2021/11/28 11:48:02;;;;;;;4.30;2.97;;;4.70;99.90;;;;;;5041301;28;20228;-83
2021/11/28 11:50:31;;;;;;;3.40;3.08;;;4.80;99.90;;;;;;5038021;28;20213;-83
2021/11/28 11:52:58;;;;;;;4.88;3.58;;;4.50;99.90;;;;;;5039909;28;20202;-83
2021/11/28 11:55:29;;;;;;;8.40;5.13;;;4.30;99.90;;;;;;5038671;28;20670;-82
2021/11/28 11:58:18;;;;;;;4.13;3.83;;;4.30;99.90;;;;;;5038361;28;20230;-82
2021/11/28 12:00:56;;;;;;;4.93;4.15;;;4.40;99.90;;;;;;5035310;28;20201;-81
2021/11/28 12:03:23;;;;;;;6.40;5.90;;;4.30;99.90;;;;;;5035858;28;20256;-82
2021/11/28 12:05:51;;;;;;;6.80;6.10;;;4.50;99.90;;;;;;5037167;28;20211;-81
2021/11/28 12:08:23;;;;;;;4.82;4.38;;;4.60;99.90;;;;;;5041823;28;20236;-82
2021/11/28 12:11:07;;;;;;;5.35;4.85;;;4.60;99.90;;;;;;5036626;28;20209;-82
2021/11/28 12:13:53;;;;;;;3.95;3.65;;;4.60;99.90;;;;;;5037496;28;20669;-82
2021/11/28 12:16:21;;;;;;;4.57;4.18;;;4.30;99.90;;;;;;5039587;28;20230;-80
2021/11/28 12:18:50;;;;;;;4.90;4.47;;;4.30;99.90;;;;;;5054087;28;20222;-80
2021/11/28 12:21:17;;;;;;;7.68;5.22;;;4.30;99.90;;;;;;5059794;28;20215;-80
2021/11/28 12:24:00;;;;;;;4.28;3.97;;;4.00;99.90;;;;;;5045662;28;20204;-80
2021/11/28 12:26:50;;;;;;;4.30;4.00;;;4.20;99.90;;;;;;5039472;28;20758;-80
2021/11/28 12:29:38;;;;;;;4.50;3.70;;;4.40;99.90;;;;;;5056952;28;20570;-80
2021/11/28 12:32:17;;;;;;;4.00;3.65;;;4.50;99.90;;;;;;5053811;28;20208;-80
2021/11/28 12:34:46;;;;;;;5.38;4.90;;;4.60;99.90;;;;;;5020950;28;20206;-80
2021/11/28 12:37:22;;;;;;;5.57;4.47;;;4.70;99.90;;;;;;5020384;28;20318;-80
2021/11/28 12:39:50;;;;;;;4.97;4.32;;;4.80;99.90;;;;;;5020746;28;20210;-80
2021/11/28 12:42:21;;;;;;;6.50;4.25;;;4.80;99.90;;;;;;5019910;28;20300;-81
2021/11/28 12:45:03;;;;;;;3.85;3.50;;;4.70;99.90;;;;;;5058683;28;20675;-82
2021/11/28 12:47:32;;;;;;;4.13;3.83;;;4.90;99.90;;;;;;5059212;28;20268;-82
2021/11/28 12:50:01;;;;;;;4.72;4.00;;;5.00;99.90;;;;;;5039467;28;20218;-85
2021/11/28 12:52:40;;;;;;;4.00;3.70;;;5.10;99.90;;;;;;5037647;28;20205;-82
2021/11/28 12:55:20;;;;;;;3.63;3.33;;;5.10;99.90;;;;;;5039565;28;20636;-82
2021/11/28 12:58:06;;;;;;;4.10;3.80;;;5.20;99.90;;;;;;5040930;28;20230;-82
2021/11/28 13:00:34;;;;;;;4.70;3.88;;;5.20;99.90;;;;;;5040447;28;20268;-81
2021/11/28 13:03:19;;;;;;;3.50;3.33;;;5.30;99.90;;;;;;5040007;28;20214;-82
2021/11/28 13:05:46;;;;;;;4.05;3.75;;;5.40;99.90;;;;;;5038788;28;20206;-82
2021/11/28 13:08:33;;;;;;;4.25;3.85;;;5.40;99.90;;;;;;5037913;28;20613;-82